Time,TemperatureF,DewpointF,PressureIn,WindDirection,WindDirectionDegrees,WindSpeedMPH,WindSpeedGustMPH,Humidity,HourlyPrecipIn,Conditions,Clouds,dailyrainin,SoftwareType,DateUTC
2013-04-10 00:03:00,68.0,53.0,-100.00,SW,235,7.0,11.0,57,0.00,,,-99.99,,2013-04-10 04:03:00,
2013-04-10 00:13:00,68.0,53.0,-100.00,SW,230,7.0,11.0,58,0.00,,,-99.99,,2013-04-10 04:13:00,
2013-04-10 00:23:00,68.0,53.0,-100.00,SW,230,6.0,9.0,59,0.00,,,-99.99,,2013-04-10 04:23:00,
2013-04-10 00:33:00,67.0,53.0,-100.00,SW,230,7.0,11.0,60,0.00,,,-99.99,,2013-04-10 04:33:00,
2013-04-10 00:43:00,67.0,53.0,-100.00,SW,225,7.0,10.0,61,0.00,,,-99.99,,2013-04-10 04:43:00,
2013-04-10 00:52:00,67.0,53.0,-100.00,SW,230,7.0,12.0,61,0.00,,,-99.99,,2013-04-10 04:52:00,
2013-04-10 01:03:00,67.0,53.0,-100.00,SW,230,8.0,12.0,61,0.00,,,-99.99,,2013-04-10 05:03:00,
2013-04-10 01:13:00,67.0,53.0,-100.00,SW,220,8.0,13.0,61,0.00,,,-99.99,,2013-04-10 05:13:00,
2013-04-10 01:23:00,67.0,54.0,-100.00,SW,220,10.0,16.0,63,0.00,,,-99.99,,2013-04-10 05:23:00,
2013-04-10 01:33:00,67.0,54.0,-100.00,SW,230,11.0,16.0,62,0.00,,,-99.99,,2013-04-10 05:33:00,
2013-04-10 01:42:00,68.0,54.0,-100.00,SW,215,13.0,17.0,62,0.00,,,-99.99,,2013-04-10 05:42:00,
2013-04-10 01:53:00,68.0,55.0,-100.00,SW,225,14.0,20.0,62,0.00,,,-99.99,,2013-04-10 05:53:00,
2013-04-10 02:03:00,67.0,55.0,-100.00,SW,225,11.0,19.0,64,0.00,,,-99.99,,2013-04-10 06:03:00,
2013-04-10 02:12:00,68.0,55.0,-100.00,SW,220,12.0,19.0,64,0.00,,,-99.99,,2013-04-10 06:12:00,
2013-04-10 02:22:00,67.0,55.0,-100.00,SW,225,10.0,16.0,65,0.00,,,-99.99,,2013-04-10 06:22:00,
2013-04-10 02:32:00,67.0,56.0,-100.00,SW,235,9.0,14.0,66,0.00,,,-99.99,,2013-04-10 06:32:00,
2013-04-10 02:42:00,67.0,56.0,-100.00,SW,235,8.0,14.0,66,0.00,,,-99.99,,2013-04-10 06:42:00,
2013-04-10 02:52:00,67.0,56.0,-100.00,WSW,255,6.0,9.0,67,0.00,,,-99.99,,2013-04-10 06:52:00,
2013-04-10 03:02:00,66.0,56.0,-100.00,WSW,250,6.0,9.0,68,0.00,,,-99.99,,2013-04-10 07:02:00,
2013-04-10 03:12:00,66.0,56.0,-100.00,WSW,245,7.0,10.0,69,0.00,,,-99.99,,2013-04-10 07:12:00,
2013-04-10 03:22:00,66.0,56.0,-100.00,WSW,245,6.0,9.0,69,0.00,,,-99.99,,2013-04-10 07:22:00,
2013-04-10 03:32:00,65.0,56.0,-100.00,WSW,240,4.0,7.0,70,0.00,,,-99.99,,2013-04-10 07:32:00,
2013-04-10 03:42:00,65.0,56.0,-100.00,SW,235,3.0,6.0,71,0.00,,,-99.99,,2013-04-10 07:42:00,
2013-04-10 03:52:00,65.0,56.0,-100.00,SW,225,3.0,7.0,72,0.00,,,-99.99,,2013-04-10 07:52:00,
2013-04-10 04:02:00,64.0,55.0,-100.00,SW,220,4.0,5.0,73,0.00,,,-99.99,,2013-04-10 08:02:00,
2013-04-10 04:12:00,64.0,55.0,-100.00,SSW,210,6.0,6.0,74,0.00,,,-99.99,,2013-04-10 08:12:00,
2013-04-10 04:22:00,63.0,55.0,-100.00,SW,220,7.0,9.0,75,0.00,,,-99.99,,2013-04-10 08:22:00,
2013-04-10 04:32:00,64.0,55.0,-100.00,SW,225,6.0,11.0,73,0.00,,,-99.99,,2013-04-10 08:32:00,
2013-04-10 04:42:00,64.0,55.0,-100.00,SW,220,6.0,9.0,74,0.00,,,-99.99,,2013-04-10 08:42:00,
2013-04-10 04:52:00,63.0,55.0,-100.00,SSW,210,6.0,9.0,75,0.00,,,-99.99,,2013-04-10 08:52:00,
2013-04-10 05:02:00,63.0,55.0,-100.00,SW,225,5.0,7.0,74,0.00,,,-99.99,,2013-04-10 09:02:00,
2013-04-10 05:12:00,64.0,55.0,-100.00,SW,215,7.0,9.0,74,0.00,,,-99.99,,2013-04-10 09:12:00,
2013-04-10 05:22:00,63.0,55.0,-100.00,SW,220,6.0,9.0,75,0.00,,,-99.99,,2013-04-10 09:22:00,
2013-04-10 05:32:00,63.0,55.0,-100.00,SW,215,6.0,8.0,75,0.00,,,-99.99,,2013-04-10 09:32:00,
2013-04-10 05:43:00,64.0,55.0,-100.00,SW,225,7.0,9.0,74,0.00,,,-99.99,,2013-04-10 09:43:00,
2013-04-10 05:52:00,64.0,56.0,-100.00,SW,230,6.0,11.0,74,0.00,,,-99.99,,2013-04-10 09:52:00,
2013-04-10 06:03:00,63.0,55.0,-100.00,SW,225,6.0,9.0,75,0.00,,,-99.99,,2013-04-10 10:03:00,
2013-04-10 06:13:00,63.0,56.0,-100.00,SSW,210,7.0,9.0,76,0.00,,,-99.99,,2013-04-10 10:13:00,
2013-04-10 06:23:00,63.0,56.0,-100.00,SSW,205,7.0,10.0,76,0.00,,,-99.99,,2013-04-10 10:23:00,
2013-04-10 06:33:00,63.0,56.0,-100.00,SSW,205,6.0,9.0,77,0.00,,,-99.99,,2013-04-10 10:33:00,
2013-04-10 06:43:00,63.0,56.0,-100.00,SSW,200,7.0,9.0,77,0.00,,,-99.99,,2013-04-10 10:43:00,
2013-04-10 06:52:00,63.0,56.0,-100.00,SSW,195,7.0,10.0,77,0.00,,,-99.99,,2013-04-10 10:52:00,
2013-04-10 07:02:00,63.0,56.0,-100.00,SSW,195,8.0,11.0,77,0.00,,,-99.99,,2013-04-10 11:02:00,
2013-04-10 07:12:00,62.0,56.0,-100.00,SSW,195,7.0,11.0,79,0.00,,,-99.99,,2013-04-10 11:12:00,
2013-04-10 07:22:00,63.0,56.0,-100.00,SSW,195,9.0,12.0,79,0.00,,,-99.99,,2013-04-10 11:22:00,
2013-04-10 07:32:00,62.0,56.0,-100.00,South,190,9.0,12.0,80,0.00,,,-99.99,,2013-04-10 11:32:00,
2013-04-10 07:42:00,62.0,56.0,-100.00,SSW,195,8.0,11.0,80,0.00,,,-99.99,,2013-04-10 11:42:00,
2013-04-10 07:52:00,63.0,56.0,-100.00,South,190,8.0,11.0,79,0.00,,,-99.99,,2013-04-10 11:52:00,
2013-04-10 08:03:00,63.0,57.0,-100.00,South,190,7.0,9.0,80,0.00,,,-99.99,,2013-04-10 12:03:00,
2013-04-10 08:12:00,63.0,57.0,-100.00,South,190,7.0,10.0,79,0.00,,,-99.99,,2013-04-10 12:12:00,
2013-04-10 08:23:00,64.0,57.0,-100.00,South,190,9.0,14.0,77,0.00,,,-99.99,,2013-04-10 12:23:00,
2013-04-10 08:33:00,65.0,57.0,-100.00,South,190,9.0,13.0,76,0.00,,,-99.99,,2013-04-10 12:33:00,
2013-04-10 08:42:00,65.0,57.0,-100.00,South,190,9.0,13.0,76,0.00,,,-99.99,,2013-04-10 12:42:00,
2013-04-10 08:52:00,65.0,57.0,-100.00,SSW,195,9.0,16.0,74,0.00,,,-99.99,,2013-04-10 12:52:00,
2013-04-10 09:02:00,66.0,57.0,-100.00,South,190,11.0,15.0,74,0.00,,,-99.99,,2013-04-10 13:02:00,
2013-04-10 09:12:00,67.0,57.0,-100.00,SSW,200,9.0,12.0,71,0.00,,,-99.99,,2013-04-10 13:12:00,
2013-04-10 09:23:00,68.0,57.0,-100.00,SSW,210,14.0,20.0,69,0.00,,,-99.99,,2013-04-10 13:23:00,
2013-04-10 09:32:00,67.0,57.0,-100.00,SSW,205,11.0,17.0,69,0.00,,,-99.99,,2013-04-10 13:32:00,
2013-04-10 09:43:00,68.0,57.0,-100.00,SSW,210,12.0,19.0,68,0.00,,,-99.99,,2013-04-10 13:43:00,
2013-04-10 09:52:00,69.0,57.0,-100.00,SSW,210,13.0,20.0,66,0.00,,,-99.99,,2013-04-10 13:52:00,
2013-04-10 10:02:00,69.0,57.0,-100.00,SW,215,14.0,19.0,66,0.00,,,-99.99,,2013-04-10 14:02:00,
2013-04-10 10:12:00,70.0,57.0,-100.00,SSW,210,13.0,19.0,64,0.00,,,-99.99,,2013-04-10 14:12:00,
2013-04-10 10:22:00,70.0,58.0,-100.00,SSW,205,14.0,24.0,64,0.00,,,-99.99,,2013-04-10 14:22:00,
2013-04-10 10:33:00,70.0,58.0,-100.00,SW,220,14.0,23.0,65,0.00,,,-99.99,,2013-04-10 14:33:00,
2013-04-10 10:42:00,71.0,58.0,-100.00,SW,215,14.0,21.0,64,0.00,,,-99.99,,2013-04-10 14:42:00,
2013-04-10 10:52:00,72.0,59.0,-100.00,SSW,205,16.0,22.0,64,0.00,,,-99.99,,2013-04-10 14:52:00,
2013-04-10 11:03:00,72.0,59.0,-100.00,SSW,210,16.0,19.0,62,0.00,,,-99.99,,2013-04-10 15:03:00,
2013-04-10 11:12:00,73.0,59.0,-100.00,SW,220,19.0,24.0,61,0.00,,,-99.99,,2013-04-10 15:12:00,
2013-04-10 11:22:00,73.0,59.0,-100.00,WSW,240,12.0,24.0,62,0.00,,,-99.99,,2013-04-10 15:22:00,
2013-04-10 11:33:00,73.0,59.0,-100.00,SW,215,12.0,19.0,61,0.00,,,-99.99,,2013-04-10 15:33:00,
2013-04-10 11:42:00,74.0,59.0,-100.00,SW,225,17.0,22.0,59,0.00,,,-99.99,,2013-04-10 15:42:00,
2013-04-10 11:52:00,74.0,59.0,-100.00,WSW,240,14.0,24.0,59,0.00,,,-99.99,,2013-04-10 15:52:00,
2013-04-10 12:03:00,73.0,59.0,-100.00,SW,230,18.0,25.0,60,0.00,,,-99.99,,2013-04-10 16:03:00,
2013-04-10 12:13:00,73.0,59.0,-100.00,SW,235,15.0,22.0,60,0.00,,,-99.99,,2013-04-10 16:13:00,
2013-04-10 12:23:00,73.0,59.0,-100.00,SSW,210,15.0,19.0,61,0.00,,,-99.99,,2013-04-10 16:23:00,
2013-04-10 12:33:00,73.0,59.0,-100.00,SW,230,12.0,19.0,61,0.00,,,-99.99,,2013-04-10 16:33:00,
2013-04-10 12:43:00,72.0,60.0,-100.00,SW,220,14.0,23.0,67,0.55,,,-99.99,,2013-04-10 16:43:00,
2013-04-10 12:52:00,72.0,60.0,-100.00,SW,235,12.0,18.0,67,0.00,,,-99.99,,2013-04-10 16:52:00,
2013-04-10 13:03:00,72.0,61.0,-100.00,SW,220,16.0,22.0,67,0.00,,,-99.99,,2013-04-10 17:03:00,
2013-04-10 13:12:00,73.0,62.0,-100.00,SSW,200,13.0,19.0,69,0.00,,,-99.99,,2013-04-10 17:12:00,
2013-04-10 13:22:00,72.0,62.0,-100.00,SSW,210,14.0,20.0,69,0.00,,,-99.99,,2013-04-10 17:22:00,
2013-04-10 13:33:00,71.0,61.0,-100.00,SSW,210,16.0,20.0,72,0.00,,,-99.99,,2013-04-10 17:33:00,
2013-04-10 13:43:00,70.0,61.0,-100.00,SW,220,10.0,24.0,74,0.00,,,-99.99,,2013-04-10 17:43:00,
2013-04-10 13:52:00,70.0,61.0,-100.00,SW,225,12.0,16.0,75,0.00,,,-99.99,,2013-04-10 17:52:00,
2013-04-10 14:03:00,69.0,62.0,-100.00,SSW,200,7.0,15.0,76,0.00,,,-99.99,,2013-04-10 18:03:00,
2013-04-10 14:12:00,69.0,62.0,-100.00,SW,230,7.0,12.0,77,0.00,,,-99.99,,2013-04-10 18:12:00,
2013-04-10 14:23:00,69.0,61.0,-100.00,WSW,255,5.0,9.0,76,0.00,,,-99.99,,2013-04-10 18:23:00,
2013-04-10 14:33:00,69.0,62.0,-100.00,SW,235,6.0,9.0,76,0.00,,,-99.99,,2013-04-10 18:33:00,
2013-04-10 14:42:00,70.0,62.0,-100.00,SW,220,7.0,12.0,76,0.00,,,-99.99,,2013-04-10 18:42:00,
2013-04-10 14:52:00,71.0,63.0,-100.00,SW,225,6.0,12.0,75,0.00,,,-99.99,,2013-04-10 18:52:00,
2013-04-10 15:03:00,72.0,63.0,-100.00,SW,215,11.0,17.0,73,0.00,,,-99.99,,2013-04-10 19:03:00,
2013-04-10 15:12:00,73.0,63.0,-100.00,SW,220,12.0,16.0,71,0.00,,,-99.99,,2013-04-10 19:12:00,
2013-04-10 15:22:00,74.0,63.0,-100.00,SW,220,13.0,18.0,68,0.00,,,-99.99,,2013-04-10 19:22:00,
2013-04-10 15:33:00,76.0,64.0,-100.00,SSW,210,14.0,19.0,68,0.00,,,-99.99,,2013-04-10 19:33:00,
2013-04-10 15:42:00,77.0,63.0,-100.00,SW,215,21.0,25.0,62,0.00,,,-99.99,,2013-04-10 19:42:00,
2013-04-10 15:52:00,78.0,62.0,-100.00,SW,215,16.0,22.0,58,0.00,,,-99.99,,2013-04-10 19:52:00,
2013-04-10 16:03:00,78.0,62.0,-100.00,SW,230,12.0,22.0,58,0.00,,,-99.99,,2013-04-10 20:03:00,
2013-04-10 16:12:00,78.0,62.0,-100.00,SW,220,17.0,24.0,58,0.00,,,-99.99,,2013-04-10 20:12:00,
2013-04-10 16:23:00,77.0,62.0,-100.00,SW,230,16.0,25.0,59,0.00,,,-99.99,,2013-04-10 20:23:00,
2013-04-10 16:33:00,74.0,63.0,-100.00,SW,225,13.0,21.0,67,8.50,,,-99.99,,2013-04-10 20:33:00,
2013-04-10 16:42:00,72.0,64.0,-100.00,West,265,6.0,14.0,75,0.00,,,-99.99,,2013-04-10 20:42:00,
2013-04-10 16:52:00,73.0,64.0,-100.00,SW,230,9.0,18.0,73,0.00,,,-99.99,,2013-04-10 20:52:00,
2013-04-10 17:03:00,73.0,64.0,-100.00,SW,230,6.0,11.0,74,0.00,,,-99.99,,2013-04-10 21:03:00,
2013-04-10 17:13:00,72.0,64.0,-100.00,SW,215,7.0,9.0,76,0.00,,,-99.99,,2013-04-10 21:13:00,
2013-04-10 17:22:00,73.0,64.0,-100.00,SW,220,9.0,11.0,72,0.00,,,-99.99,,2013-04-10 21:22:00,
2013-04-10 17:33:00,75.0,62.0,-100.00,SW,220,14.0,25.0,63,0.00,,,-99.99,,2013-04-10 21:33:00,
2013-04-10 17:43:00,76.0,61.0,-100.00,SW,235,14.0,22.0,60,0.00,,,-99.99,,2013-04-10 21:43:00,
2013-04-10 17:53:00,76.0,61.0,-100.00,WSW,240,10.0,22.0,60,0.00,,,-99.99,,2013-04-10 21:53:00,
2013-04-10 18:03:00,76.0,61.0,-100.00,West,275,6.0,14.0,61,0.00,,,-99.99,,2013-04-10 22:03:00,
2013-04-10 18:13:00,68.0,56.0,-100.00,NNW,340,12.0,16.0,66,0.00,,,-99.99,,2013-04-10 22:13:00,
2013-04-10 18:23:00,67.0,56.0,-100.00,NNW,345,9.0,15.0,70,0.00,,,-99.99,,2013-04-10 22:23:00,
2013-04-10 18:34:00,66.0,56.0,-100.00,North,355,8.0,15.0,71,0.00,,,-99.99,,2013-04-10 22:34:00,
2013-04-10 18:42:00,65.0,56.0,-100.00,NNW,330,11.0,16.0,72,0.00,,,-99.99,,2013-04-10 22:42:00,
2013-04-10 18:52:00,65.0,57.0,-100.00,NW,325,12.0,19.0,75,0.00,,,-99.99,,2013-04-10 22:52:00,
2013-04-10 19:03:00,64.0,57.0,-100.00,NNW,330,12.0,15.0,78,0.00,,,-99.99,,2013-04-10 23:03:00,
2013-04-10 19:12:00,64.0,58.0,-100.00,NW,310,11.0,19.0,81,0.00,,,-99.99,,2013-04-10 23:12:00,
2013-04-10 19:22:00,63.0,58.0,-100.00,NNW,330,4.0,13.0,84,0.00,,,-99.99,,2013-04-10 23:22:00,
2013-04-10 19:33:00,63.0,59.0,-100.00,NNW,330,2.0,9.0,86,0.00,,,-99.99,,2013-04-10 23:33:00,
2013-04-10 19:42:00,63.0,59.0,-100.00,WNW,295,3.0,6.0,88,0.00,,,-99.99,,2013-04-10 23:42:00,
2013-04-10 19:52:00,63.0,59.0,-100.00,SW,230,2.0,6.0,88,0.00,,,-99.99,,2013-04-10 23:52:00,
2013-04-10 20:02:00,58.0,56.0,-100.00,North,-999,-999.0,-999.0,94,11.34,,,-99.99,,2013-04-11 00:02:00,
2013-04-10 20:12:00,58.0,57.0,-100.00,NNW,340,8.0,23.0,97,10.75,,,-99.99,,2013-04-11 00:12:00,
2013-04-10 20:22:00,58.0,57.0,-100.00,North,355,4.0,11.0,97,0.55,,,-99.99,,2013-04-11 00:22:00,
2013-04-10 20:32:00,58.0,57.0,-100.00,North,355,4.0,9.0,97,1.10,,,-99.99,,2013-04-11 00:32:00,
2013-04-10 20:42:00,58.0,57.0,-100.00,NE,40,2.0,8.0,96,0.00,,,-99.99,,2013-04-11 00:42:00,
2013-04-10 20:52:00,58.0,57.0,-100.00,NNE,30,3.0,9.0,95,0.00,,,-99.99,,2013-04-11 00:52:00,
2013-04-10 21:02:00,58.0,57.0,-100.00,East,85,1.0,5.0,94,0.00,,,-99.99,,2013-04-11 01:02:00,
2013-04-10 21:12:00,59.0,57.0,-100.00,NNE,30,0.0,2.0,94,0.00,,,-99.99,,2013-04-11 01:12:00,
2013-04-10 21:22:00,58.0,57.0,-100.00,NNE,30,1.0,3.0,95,0.00,,,-99.99,,2013-04-11 01:22:00,
2013-04-10 21:32:00,58.0,57.0,-100.00,NNE,30,3.0,6.0,94,0.00,,,-99.99,,2013-04-11 01:32:00,
2013-04-10 21:42:00,58.0,57.0,-100.00,SE,140,2.0,5.0,95,2.24,,,-99.99,,2013-04-11 01:42:00,
2013-04-10 21:52:00,58.0,57.0,-100.00,ESE,110,3.0,7.0,97,3.39,,,-99.99,,2013-04-11 01:52:00,
2013-04-10 22:03:00,58.0,57.0,-100.00,SE,125,4.0,6.0,97,0.55,,,-99.99,,2013-04-11 02:03:00,
2013-04-10 22:12:00,57.0,57.0,-100.00,ESE,115,7.0,10.0,98,1.69,,,-99.99,,2013-04-11 02:12:00,
2013-04-10 22:22:00,57.0,57.0,-100.00,East,95,6.0,11.0,98,0.00,,,-99.99,,2013-04-11 02:22:00,
2013-04-10 22:32:00,57.0,56.0,-100.00,East,100,6.0,7.0,98,0.00,,,-99.99,,2013-04-11 02:32:00,
2013-04-10 22:42:00,57.0,56.0,-100.00,East,100,6.0,7.0,98,0.00,,,-99.99,,2013-04-11 02:42:00,
2013-04-10 22:52:00,57.0,56.0,-100.00,East,90,6.0,8.0,98,0.00,,,-99.99,,2013-04-11 02:52:00,
2013-04-10 23:02:00,57.0,57.0,-100.00,East,95,4.0,6.0,98,0.00,,,-99.99,,2013-04-11 03:02:00,
2013-04-10 23:12:00,57.0,57.0,-100.00,East,95,3.0,5.0,98,0.00,,,-99.99,,2013-04-11 03:12:00,
2013-04-10 23:22:00,57.0,57.0,-100.00,East,95,3.0,5.0,98,0.00,,,-99.99,,2013-04-11 03:22:00,
2013-04-10 23:33:00,57.0,57.0,-100.00,East,95,3.0,5.0,98,0.00,,,-99.99,,2013-04-11 03:33:00,
2013-04-10 23:43:00,57.0,57.0,-100.00,NE,35,1.0,2.0,98,0.00,,,-99.99,,2013-04-11 03:43:00,
2013-04-10 23:53:00,57.0,57.0,-100.00,SE,130,4.0,6.0,98,0.00,,,-99.99,,2013-04-11 03:53:00,